Terminal Aerodrome Forecast
Issued by NWS Newport/Morehead City, NC

Home | Current Version | Previous Version | Graphics & Text | Print | Product List | Glossary On
Versions: 1 2 3 4 5 6 7 8 9 10 11 12 13 14 15 16 17 18 19 20
014
FTUS42 KMHX 161020 AAA
TAFEWN
TAF AMD
KEWN 161020Z 1610/1706 VRB03KT P6SM SCT060
      TEMPO 1610/1613 2SM BR BKN003
     FM161400 VRB03KT P6SM SCT015
     FM161700 VRB03KT P6SM BKN035=

USA.gov is the U.S. government's official web portal to all federal, state and local government web resources and services.